Time;durP1;ratioP1;P1;durP2;ratioP2;P2;SDS_P1;SDS_P2;PMS_P1;PMS_P2;Temp;Humidity;BMP_temperature;BMP_pressure;BME280_temperature;BME280_humidity;BME280_pressure;Samples;Min_cycle;Max_cycle;Signal;HPM_P1;HPM_P2
2023/06/28 00:01:25;;;;;;;5.10;4.60;;;;;;;19.64;100.00;98681.69;104688;1253;60492;-63
2023/06/28 00:03:53;;;;;;;4.30;3.80;;;;;;;19.69;100.00;98683.02;104366;1273;74046;-63
2023/06/28 00:06:21;;;;;;;4.60;4.10;;;;;;;19.66;100.00;98682.95;104350;1263;69124;-63
2023/06/28 00:08:48;;;;;;;5.20;3.80;;;;;;;19.64;100.00;98677.13;104438;1262;72669;-63
2023/06/28 00:11:16;;;;;;;4.20;3.80;;;;;;;19.67;100.00;98676.13;104423;1257;61470;-62
2023/06/28 00:13:44;;;;;;;3.70;3.40;;;;;;;19.71;100.00;98678.02;104418;1253;60558;-66
2023/06/28 00:16:14;;;;;;;3.50;3.30;;;;;;;19.66;100.00;98678.29;104390;1257;73637;-62
2023/06/28 00:18:45;;;;;;;4.60;3.30;;;;;;;19.61;100.00;98674.73;104377;1270;69146;-63
2023/06/28 00:21:13;;;;;;;3.90;3.30;;;;;;;19.59;100.00;98673.88;104751;1259;73367;-63
2023/06/28 00:23:41;;;;;;;;;;;;;;;19.61;100.00;98676.88;104332;1253;61493;-62
2023/06/28 00:26:09;;;;;;;;;;;;;;;19.58;100.00;98677.84;107927;1252;59576;-63
2023/06/28 00:28:36;;;;;;;4.40;3.00;;;;;;;19.55;100.00;98677.97;108043;1253;73277;-62
2023/06/28 00:31:04;;;;;;;3.60;3.30;;;;;;;19.58;100.00;98680.37;105195;1254;69465;-61
2023/06/28 00:33:32;;;;;;;3.70;3.30;;;;;;;19.45;100.00;98688.64;104500;1254;72946;-62
2023/06/28 00:36:02;;;;;;;5.10;3.20;;;;;;;19.50;100.00;98682.34;104744;1253;61439;-62
2023/06/28 00:38:30;;;;;;;;;;;;;;;19.45;100.00;98675.70;104849;1252;60893;-62
2023/06/28 00:40:57;;;;;;;;;;;;;;;19.42;100.00;98680.76;104334;1259;73671;-62
2023/06/28 00:43:25;;;;;;;3.90;3.30;;;;;;;19.41;100.00;98682.80;104443;1260;69580;-63
2023/06/28 00:45:53;;;;;;;4.70;3.50;;;;;;;19.34;100.00;98679.55;104409;1270;72363;-62
2023/06/28 00:48:21;;;;;;;3.00;2.70;;;;;;;19.33;100.00;98676.00;104403;1257;60898;-62
2023/06/28 00:50:51;;;;;;;3.30;3.00;;;;;;;19.33;100.00;98670.83;105686;1252;59778;-62
2023/06/28 00:53:19;;;;;;;3.50;3.20;;;;;;;19.34;100.00;98667.86;108379;1253;74493;-62
2023/06/28 00:55:46;;;;;;;6.80;3.60;;;;;;;19.25;100.00;98664.61;107383;1251;69172;-63
2023/06/28 00:58:15;;;;;;;4.70;2.90;;;;;;;19.16;100.00;98660.64;105997;1253;71512;-62
2023/06/28 01:00:44;;;;;;;3.60;3.30;;;;;;;19.13;100.00;98659.53;104755;1257;61791;-61
2023/06/28 01:03:18;;;;;;;7.20;3.80;;;;;;;19.13;100.00;98655.04;104413;1254;60540;-62
2023/06/28 01:05:49;;;;;;;4.00;3.60;;;;;;;19.03;100.00;98658.29;104513;1252;74518;-62
2023/06/28 01:08:17;;;;;;;5.20;3.30;;;;;;;19.05;100.00;98660.78;104580;1251;69180;-62
2023/06/28 01:10:44;;;;;;;4.70;3.40;;;;;;;19.01;100.00;98661.12;104328;1263;72604;-62
2023/06/28 01:13:12;;;;;;;5.50;3.20;;;;;;;18.96;100.00;98662.01;104368;1257;62498;-61
2023/06/28 01:15:40;;;;;;;6.50;3.30;;;;;;;18.96;100.00;98657.04;104584;1256;60623;-62
2023/06/28 01:18:11;;;;;;;4.70;2.90;;;;;;;18.98;100.00;98663.92;104239;1269;73704;-62
2023/06/28 01:20:39;;;;;;;3.50;3.20;;;;;;;18.92;100.00;98667.34;104410;1260;69752;-61
2023/06/28 01:23:07;;;;;;;4.30;3.50;;;;;;;18.94;100.00;98666.42;104611;1254;72556;-63
2023/06/28 01:25:35;;;;;;;3.90;3.20;;;;;;;18.98;100.00;98663.07;104211;1257;62176;-61
2023/06/28 01:28:03;;;;;;;7.20;3.40;;;;;;;18.96;100.00;98657.19;104882;1256;60586;-61
2023/06/28 01:30:37;;;;;;;6.20;3.50;;;;;;;18.99;100.00;98655.86;104484;1265;73646;-61
2023/06/28 01:33:05;;;;;;;4.30;3.50;;;;;;;18.99;100.00;98659.75;104531;1263;69656;-61
2023/06/28 01:35:33;;;;;;;5.90;3.30;;;;;;;18.97;100.00;98656.75;104338;1251;72426;-62
2023/06/28 01:38:01;;;;;;;;;;;;;;;19.01;100.00;98651.70;104352;1254;61381;-62
2023/06/28 01:40:28;;;;;;;5.90;3.10;;;;;;;18.96;100.00;98658.59;104476;1262;60613;-62
2023/06/28 01:42:58;;;;;;;5.40;3.40;;;;;;;18.96;100.00;98653.85;104415;1256;74067;-62
2023/06/28 01:45:26;;;;;;;4.60;3.20;;;;;;;18.94;100.00;98652.23;104516;1263;69555;-63
2023/06/28 01:47:54;;;;;;;;;;;;;;;18.92;100.00;98650.32;104387;1263;72877;-63
2023/06/28 01:50:22;;;;;;;;;;;;;;;18.88;100.00;98650.46;104428;1252;61426;-62
2023/06/28 01:52:50;;;;;;;6.30;3.80;;;;;;;18.91;100.00;98654.85;107205;1251;60453;-63
2023/06/28 01:55:18;;;;;;;4.80;3.10;;;;;;;18.92;100.00;98653.34;107787;1254;73642;-63
2023/06/28 01:57:45;;;;;;;3.90;3.60;;;;;;;18.94;100.00;98655.81;104563;1257;69163;-62
2023/06/28 02:00:15;;;;;;;4.80;3.30;;;;;;;18.92;100.00;98653.52;104442;1264;72540;-62
2023/06/28 02:02:50;;;;;;;5.30;3.20;;;;;;;18.95;100.00;98647.38;104534;1254;61527;-63
2023/06/28 02:05:21;;;;;;;3.80;3.00;;;;;;;18.94;100.00;98649.42;104521;1254;60641;-62
2023/06/28 02:07:49;;;;;;;5.30;3.10;;;;;;;18.88;100.00;98656.52;104608;1253;73691;-65
2023/06/28 02:10:18;;;;;;;4.00;3.60;;;;;;;18.89;100.00;98657.73;104611;1253;69369;-62
2023/06/28 02:12:45;;;;;;;5.60;3.50;;;;;;;18.93;100.00;98655.87;104327;1258;73388;-62
2023/06/28 02:15:14;;;;;;;;;;;;;;;18.83;100.00;98658.34;104561;1254;61868;-62
2023/06/28 02:17:42;;;;;;;5.10;3.20;;;;;;;18.83;100.00;98662.16;104600;1256;61340;-64
2023/06/28 02:20:10;;;;;;;3.70;3.40;;;;;;;18.82;100.00;98662.89;104618;1256;74058;-61
2023/06/28 02:22:39;;;;;;;3.60;3.10;;;;;;;18.76;100.00;98666.27;104375;1269;69214;-63
2023/06/28 02:25:07;;;;;;;4.30;3.60;;;;;;;18.77;100.00;98665.70;104390;1273;72588;-61
2023/06/28 02:27:35;;;;;;;5.40;3.40;;;;;;;18.77;100.00;98669.36;104425;1253;61519;-62
2023/06/28 02:30:03;;;;;;;8.40;3.10;;;;;;;18.77;100.00;98670.83;107158;1251;60624;-62
2023/06/28 02:32:31;;;;;;;;;;;;;;;18.80;100.00;98674.09;107393;1253;73876;-64
2023/06/28 02:34:58;;;;;;;4.30;3.30;;;;;;;18.78;100.00;98676.94;104494;1257;69054;-63
2023/06/28 02:37:26;;;;;;;6.30;3.90;;;;;;;18.74;100.00;98682.06;104541;1254;72467;-64
2023/06/28 02:39:54;;;;;;;6.10;3.80;;;;;;;18.67;100.00;98681.54;104388;1257;62356;-66
2023/06/28 02:42:22;;;;;;;;;;;;;;;18.77;100.00;98677.54;104276;1252;61122;-64
2023/06/28 02:44:49;;;;;;;6.70;3.40;;;;;;;18.77;100.00;98676.88;104351;1257;74297;-64
2023/06/28 02:47:17;;;;;;;;;;;;;;;18.71;100.00;98673.99;104473;1263;69050;-62
2023/06/28 02:49:45;;;;;;;4.20;3.60;;;;;;;18.72;100.00;98671.42;104584;1254;72399;-64
2023/06/28 02:52:13;;;;;;;5.80;3.20;;;;;;;18.63;100.00;98671.76;104447;1251;61469;-64
2023/06/28 02:54:41;;;;;;;6.10;3.60;;;;;;;18.67;100.00;98673.18;104423;1254;62370;-63
2023/06/28 02:57:10;;;;;;;4.90;3.60;;;;;;;18.66;100.00;98676.09;104413;1255;73696;-64
2023/06/28 02:59:58;;;;;;;4.50;3.30;;;;;;;18.72;100.00;98681.04;104282;1256;68139;-65
2023/06/28 03:02:26;;;;;;;6.60;3.00;;;;;;;18.70;100.00;98675.75;104488;1269;72449;-64
2023/06/28 03:04:54;;;;;;;12.20;3.30;;;;;;;18.65;100.00;98675.26;104242;1254;61415;-65
2023/06/28 03:07:22;;;;;;;3.90;3.30;;;;;;;18.65;100.00;98678.83;104408;1254;60507;-64
2023/06/28 03:09:50;;;;;;;4.70;3.00;;;;;;;18.67;100.00;98680.93;104630;1254;74105;-65
2023/06/28 03:12:17;;;;;;;;;;;;;;;18.59;100.00;98686.86;104309;1271;68789;-64
2023/06/28 03:14:45;;;;;;;5.30;3.20;;;;;;;18.55;100.00;98685.58;104351;1257;72963;-63
2023/06/28 03:17:13;;;;;;;;;;;;;;;18.61;100.00;98688.27;104472;1254;61485;-64
2023/06/28 03:19:41;;;;;;;5.80;2.90;;;;;;;18.50;100.00;98689.94;104444;1253;60559;-62
2023/06/28 03:22:09;;;;;;;5.60;2.70;;;;;;;18.52;100.00;98683.05;104271;1260;73567;-64
2023/06/28 03:24:37;;;;;;;4.80;3.00;;;;;;;18.51;100.00;98679.71;104278;1270;70712;-63
2023/06/28 03:27:05;;;;;;;3.10;2.60;;;;;;;18.54;100.00;98677.02;104445;1254;72565;-63
2023/06/28 03:29:33;;;;;;;7.20;3.20;;;;;;;18.51;100.00;98674.58;104530;1256;61421;-63
2023/06/28 03:32:01;;;;;;;3.10;2.80;;;;;;;18.45;100.00;98682.27;104388;1251;60513;-64
2023/06/28 03:34:29;;;;;;;;;;;;;;;18.53;100.00;98683.64;104288;1257;73563;-64
2023/06/28 03:36:56;;;;;;;5.40;3.10;;;;;;;18.49;100.00;98687.59;104369;1259;69976;-63
2023/06/28 03:39:31;;;;;;;4.10;2.60;;;;;;;18.54;100.00;98690.33;104291;1253;71443;-63
2023/06/28 03:41:59;;;;;;;7.60;2.50;;;;;;;18.54;100.00;98690.11;104351;1256;61355;-63
2023/06/28 03:44:28;;;;;;;3.40;2.90;;;;;;;18.53;100.00;98694.85;104237;1261;61054;-63
2023/06/28 03:46:56;;;;;;;5.30;3.00;;;;;;;18.48;100.00;98693.88;104544;1253;73541;-64
2023/06/28 03:49:23;;;;;;;4.70;3.10;;;;;;;18.42;100.00;98692.29;104604;1263;69324;-64
2023/06/28 03:51:51;;;;;;;6.70;2.70;;;;;;;18.42;100.00;98689.86;104303;1251;72406;-64
2023/06/28 03:54:19;;;;;;;7.00;3.30;;;;;;;18.36;100.00;98689.44;104500;1272;60910;-62
2023/06/28 03:56:49;;;;;;;4.50;3.10;;;;;;;18.40;100.00;98688.90;105854;1254;60527;-62
2023/06/28 03:59:17;;;;;;;3.40;2.90;;;;;;;18.41;100.00;98686.91;104725;1256;73676;-63
2023/06/28 04:01:44;;;;;;;4.30;2.70;;;;;;;18.38;100.00;98691.19;104463;1272;69217;-63
2023/06/28 04:04:15;;;;;;;4.00;2.80;;;;;;;18.31;100.00;98691.15;104485;1254;72875;-63
2023/06/28 04:06:45;;;;;;;4.70;2.50;;;;;;;18.22;100.00;98689.11;104548;1256;61482;-63
2023/06/28 04:09:13;;;;;;;4.60;3.00;;;;;;;18.29;100.00;98683.64;104774;1251;60785;-64
2023/06/28 04:11:41;;;;;;;4.20;2.80;;;;;;;18.23;100.00;98684.38;104351;1255;74061;-63
2023/06/28 04:14:09;;;;;;;7.10;2.70;;;;;;;18.24;100.00;98688.16;104538;1266;69052;-63
2023/06/28 04:16:36;;;;;;;3.80;2.60;;;;;;;18.22;100.00;98693.55;104329;1257;72510;-64
2023/06/28 04:19:05;;;;;;;7.80;2.50;;;;;;;18.26;100.00;98690.29;104503;1254;61637;-64
2023/06/28 04:21:33;;;;;;;2.70;2.30;;;;;;;18.37;100.00;98680.86;104420;1254;59965;-63
2023/06/28 04:24:01;;;;;;;5.20;2.70;;;;;;;18.34;100.00;98680.27;104434;1256;74107;-64
2023/06/28 04:26:29;;;;;;;3.60;2.70;;;;;;;18.58;100.00;98680.16;108568;1251;69694;-64
2023/06/28 04:28:57;;;;;;;4.00;2.60;;;;;;;18.76;100.00;98675.74;108523;1251;72370;-65
2023/06/28 04:31:25;;;;;;;6.70;2.70;;;;;;;18.90;100.00;98673.02;108538;1251;62448;-65
2023/06/28 04:33:55;;;;;;;;;;;;;;;18.95;100.00;98673.67;108556;1251;58797;-65
2023/06/28 04:36:25;;;;;;;8.00;2.40;;;;;;;18.92;100.00;98679.42;108410;1251;74285;-65
2023/06/28 04:38:54;;;;;;;3.70;2.30;;;;;;;18.81;100.00;98684.55;108433;1251;69687;-64
2023/06/28 04:41:23;;;;;;;3.20;2.00;;;;;;;18.83;100.00;98679.02;108427;1251;72526;-64
2023/06/28 04:43:55;;;;;;;4.60;2.70;;;;;;;18.80;100.00;98682.48;108578;1251;60362;-66
2023/06/28 04:46:26;;;;;;;3.80;2.30;;;;;;;18.73;100.00;98681.29;108601;1251;59705;-65
2023/06/28 04:48:55;;;;;;;2.30;2.00;;;;;;;18.77;100.00;98682.71;108606;1251;74670;-65
2023/06/28 04:51:24;;;;;;;3.60;2.10;;;;;;;18.77;100.00;98685.77;108551;1251;69617;-65
2023/06/28 04:53:52;;;;;;;4.40;2.30;;;;;;;18.73;100.00;98693.58;108504;1251;72346;-65
2023/06/28 04:56:19;;;;;;;2.00;1.80;;;;;;;18.58;100.00;98693.14;108500;1253;61743;-64
2023/06/28 04:58:47;;;;;;;3.00;2.30;;;;;;;18.64;100.00;98689.35;108456;1251;59736;-66
2023/06/28 05:01:15;;;;;;;2.50;1.70;;;;;;;18.61;100.00;98685.06;108513;1251;73816;-66
2023/06/28 05:03:47;;;;;;;4.80;2.30;;;;;;;18.66;100.00;98687.41;108450;1251;68604;-65
2023/06/28 05:06:16;;;;;;;6.30;2.40;;;;;;;18.76;100.00;98692.05;108460;1251;72490;-65
2023/06/28 05:08:45;;;;;;;3.90;1.90;;;;;;;18.79;100.00;98691.03;108539;1251;61831;-64
2023/06/28 05:11:12;;;;;;;5.50;2.20;;;;;;;18.90;100.00;98688.50;108612;1251;60388;-65
2023/06/28 05:13:41;;;;;;;;;;;;;;;19.02;100.00;98681.44;108654;1251;73624;-64
2023/06/28 05:16:08;;;;;;;3.10;2.00;;;;;;;19.16;100.00;98682.16;108612;1251;69554;-65
2023/06/28 05:18:36;;;;;;;2.40;2.10;;;;;;;19.25;100.00;98683.48;108617;1251;72856;-65
2023/06/28 05:21:04;;;;;;;3.20;1.90;;;;;;;19.35;100.00;98682.19;108523;1252;59696;-66
2023/06/28 05:23:32;;;;;;;3.40;1.80;;;;;;;19.38;100.00;98684.34;108630;1251;59661;-65
2023/06/28 05:25:59;;;;;;;4.90;1.80;;;;;;;19.42;100.00;98676.50;108550;1251;73640;-67
2023/06/28 05:28:27;;;;;;;2.10;1.80;;;;;;;19.34;100.00;98679.55;108574;1251;69347;-66
2023/06/28 05:30:55;;;;;;;3.40;1.90;;;;;;;19.52;100.00;98677.02;108496;1251;71506;-65
2023/06/28 05:33:22;;;;;;;3.70;2.00;;;;;;;19.61;100.00;98681.48;108549;1251;59111;-65
2023/06/28 05:35:50;;;;;;;;;;;;;;;19.69;100.00;98685.02;108603;1251;59690;-65
2023/06/28 05:38:18;;;;;;;;;;;;;;;19.74;100.00;98686.52;108624;1251;73102;-65
2023/06/28 05:40:45;;;;;;;5.30;2.90;;;;;;;19.69;100.00;98687.63;108552;1251;69102;-63
2023/06/28 05:43:13;;;;;;;2.30;1.50;;;;;;;19.79;100.00;98687.58;108512;1252;72540;-65
2023/06/28 05:45:42;;;;;;;;;;;;;;;19.78;100.00;98691.76;108628;1251;60915;-64
2023/06/28 05:48:09;;;;;;;2.90;1.60;;;;;;;19.83;100.00;98696.46;108585;1251;59464;-65
2023/06/28 05:50:37;;;;;;;4.50;2.00;;;;;;;19.79;100.00;98693.27;108566;1251;73701;-65
2023/06/28 05:53:08;;;;;;;2.80;1.70;;;;;;;19.91;100.00;98691.79;108585;1251;69341;-66
2023/06/28 05:55:36;;;;;;;3.50;1.60;;;;;;;19.76;100.00;98696.36;108424;1251;73082;-66
2023/06/28 05:58:03;;;;;;;;;;;;;;;19.84;100.00;98694.45;108434;1251;59775;-66
2023/06/28 06:00:31;;;;;;;;;;;;;;;19.51;100.00;98698.58;108456;1251;58545;-66
2023/06/28 06:02:58;;;;;;;;;;;;;;;19.45;100.00;98695.77;108470;1251;73659;-65
2023/06/28 06:05:26;;;;;;;3.60;1.40;;;;;;;19.47;100.00;98695.55;108426;1251;69116;-66
2023/06/28 06:07:54;;;;;;;;;;;;;;;19.61;100.00;98694.41;108458;1253;72863;-66
2023/06/28 06:10:22;;;;;;;;;;;;;;;19.71;100.00;98690.27;108595;1254;60465;-65
2023/06/28 06:12:50;;;;;;;3.20;1.60;;;;;;;19.69;100.00;98698.52;108573;1253;59428;-65
2023/06/28 06:15:18;;;;;;;2.70;1.30;;;;;;;19.73;100.00;98700.76;108553;1252;72466;-63
2023/06/28 06:17:46;;;;;;;2.00;1.30;;;;;;;19.87;100.00;98700.30;108598;1251;69019;-65
2023/06/28 06:20:17;;;;;;;1.60;1.30;;;;;;;19.97;100.00;98697.23;108583;1251;72340;-65
2023/06/28 06:22:44;;;;;;;3.40;1.60;;;;;;;20.07;100.00;98694.48;108603;1251;59800;-63
2023/06/28 06:25:12;;;;;;;4.40;1.50;;;;;;;20.17;100.00;98693.75;108521;1251;59829;-63
2023/06/28 06:27:40;;;;;;;3.90;1.30;;;;;;;20.33;100.00;98694.82;108540;1254;73629;-64
2023/06/28 06:30:10;;;;;;;3.70;1.50;;;;;;;20.52;100.00;98693.30;108532;1251;68373;-63
2023/06/28 06:32:38;;;;;;;2.80;1.50;;;;;;;20.71;100.00;98694.52;108538;1251;72346;-63
2023/06/28 06:35:06;;;;;;;;;;;;;;;20.64;100.00;98696.23;108574;1251;60668;-65
2023/06/28 06:37:34;;;;;;;3.40;1.40;;;;;;;20.43;100.00;98700.03;108477;1251;59625;-64
2023/06/28 06:40:02;;;;;;;;;;;;;;;20.51;100.00;98700.34;108432;1251;73653;-62
2023/06/28 06:42:29;;;;;;;;;;;;;;;20.51;100.00;98699.77;108478;1251;70314;-64
2023/06/28 06:44:57;;;;;;;2.40;1.30;;;;;;;20.44;100.00;98700.45;108546;1251;72869;-66
2023/06/28 06:47:25;;;;;;;1.10;1.10;;;;;;;20.52;100.00;98701.35;108481;1251;59785;-64
2023/06/28 06:49:53;;;;;;;1.70;1.20;;;;;;;20.68;100.00;98706.05;108522;1251;58752;-64
2023/06/28 06:52:20;;;;;;;2.00;1.20;;;;;;;20.76;100.00;98703.92;108489;1254;74091;-65
2023/06/28 06:54:48;;;;;;;1.60;1.10;;;;;;;20.84;100.00;98704.77;108552;1251;69566;-64
2023/06/28 06:57:16;;;;;;;2.20;1.50;;;;;;;20.94;100.00;98715.51;108453;1251;73366;-64
2023/06/28 06:59:43;;;;;;;4.00;1.00;;;;;;;20.94;100.00;98712.30;108559;1251;59959;-64
2023/06/28 07:02:11;;;;;;;2.00;1.40;;;;;;;21.07;100.00;98717.98;108589;1251;59683;-62
2023/06/28 07:04:38;;;;;;;;;;;;;;;21.13;100.00;98728.02;108596;1253;72665;-63
2023/06/28 07:07:06;;;;;;;;;;;;;;;21.22;100.00;98726.55;108532;1251;70185;-64
2023/06/28 07:09:34;;;;;;;;;;;;;;;21.23;100.00;98727.75;108541;1251;72927;-63
2023/06/28 07:12:02;;;;;;;3.40;1.30;;;;;;;21.34;100.00;98727.33;108499;1253;59761;-63
2023/06/28 07:14:29;;;;;;;;;;;;;;;21.39;100.00;98731.45;108645;1251;59736;-61
2023/06/28 07:16:57;;;;;;;;;;;;;;;21.34;100.00;98731.98;108533;1251;73118;-60
2023/06/28 07:19:24;;;;;;;1.60;1.30;;;;;;;21.34;100.00;98732.13;108496;1252;69778;-63
2023/06/28 07:21:52;;;;;;;1.40;1.30;;;;;;;21.30;100.00;98727.03;108491;1251;72396;-62
2023/06/28 07:24:20;;;;;;;1.00;1.00;;;;;;;21.29;100.00;98728.88;108554;1251;59800;-66
2023/06/28 07:26:47;;;;;;;2.10;1.30;;;;;;;21.37;100.00;98722.18;108570;1251;59781;-63
2023/06/28 07:29:15;;;;;;;;;;;;;;;21.58;100.00;98718.13;108554;1252;74284;-62
2023/06/28 07:31:43;;;;;;;1.40;1.30;;;;;;;21.54;100.00;98723.92;108678;1251;68103;-66
2023/06/28 07:34:11;;;;;;;5.00;1.30;;;;;;;21.70;100.00;98722.20;108569;1252;72534;-63
2023/06/28 07:36:38;;;;;;;6.60;1.50;;;;;;;21.69;100.00;98725.71;108543;1253;59836;-63
2023/06/28 07:41:00;;;;;;;2.50;1.40;;;;;;;21.32;100.00;98726.66;101640;1303;601398;-62
2023/06/28 07:43:28;;;;;;;1.20;1.10;;;;;;;21.65;100.00;98733.25;103747;1267;59748;-63
2023/06/28 07:45:59;;;;;;;1.10;1.10;;;;;;;21.57;100.00;98730.32;103946;1265;59401;-63
2023/06/28 07:48:27;;;;;;;2.30;1.30;;;;;;;21.68;100.00;98734.23;103729;1270;72443;-62
2023/06/28 07:50:55;;;;;;;;;;;;;;;21.75;100.00;98727.11;103923;1267;69153;-61
2023/06/28 07:53:23;;;;;;;1.60;1.10;;;;;;;21.92;100.00;98729.96;103829;1270;72670;-59
2023/06/28 07:55:50;;;;;;;1.40;1.00;;;;;;;21.95;100.00;98729.84;105259;1262;186332;-60
2023/06/28 07:58:19;;;;;;;1.70;1.20;;;;;;;21.92;100.00;98734.89;107147;1263;59939;-61
2023/06/28 08:00:47;;;;;;;1.30;1.20;;;;;;;21.88;100.00;98736.93;105647;1254;72175;-61
2023/06/28 08:03:16;;;;;;;2.40;1.20;;;;;;;21.66;100.00;98743.48;104622;1257;69893;-60
2023/06/28 08:05:44;;;;;;;2.10;1.30;;;;;;;21.62;100.00;98731.25;104748;1257;73106;-60
2023/06/28 08:08:12;;;;;;;;;;;;;;;21.76;100.00;98729.48;104489;1259;60744;-60
2023/06/28 08:10:40;;;;;;;1.20;1.10;;;;;;;21.77;100.00;98733.98;104654;1257;59834;-61
2023/06/28 08:13:07;;;;;;;1.90;1.00;;;;;;;21.71;100.00;98738.86;104369;1263;72106;-60
2023/06/28 08:15:36;;;;;;;;;;;;;;;21.74;100.00;98748.73;104368;1266;68775;-60
2023/06/28 08:18:06;;;;;;;3.20;1.30;;;;;;;21.70;99.83;98741.36;104224;1263;72421;-60
2023/06/28 08:20:34;;;;;;;3.20;1.30;;;;;;;21.80;100.00;98729.27;104336;1258;60372;-62
2023/06/28 08:23:03;;;;;;;1.40;1.20;;;;;;;21.88;100.00;98732.29;104501;1257;59751;-61
2023/06/28 08:25:30;;;;;;;1.70;1.20;;;;;;;21.92;99.76;98729.98;104603;1257;71912;-63
2023/06/28 08:27:58;;;;;;;3.50;1.00;;;;;;;21.90;97.37;98729.09;104273;1258;69651;-62
2023/06/28 08:30:26;;;;;;;;;;;;;;;21.99;99.65;98725.78;104304;1263;73416;-62
2023/06/28 08:32:53;;;;;;;;;;;;;;;21.96;94.74;98728.08;104268;1257;60744;-62
2023/06/28 08:35:21;;;;;;;2.20;0.90;;;;;;;21.86;97.36;98728.06;104326;1257;59679;-63
2023/06/28 08:37:49;;;;;;;3.80;1.10;;;;;;;21.88;99.30;98726.80;104837;1254;72863;-65
2023/06/28 08:40:17;;;;;;;2.20;1.40;;;;;;;21.89;99.52;98725.25;107760;1257;70158;-65
2023/06/28 08:42:45;;;;;;;4.20;1.00;;;;;;;21.97;99.45;98721.05;107748;1254;72995;-65
2023/06/28 08:45:13;;;;;;;;;;;;;;;22.09;95.68;98719.27;107611;1257;58796;-65
2023/06/28 08:47:41;;;;;;;1.80;0.80;;;;;;;22.29;94.70;98709.64;107618;1257;59763;-68
2023/06/28 08:50:10;;;;;;;4.80;1.10;;;;;;;22.34;91.21;98710.23;107615;1255;72743;-64
2023/06/28 08:52:38;;;;;;;1.60;1.20;;;;;;;22.40;93.47;98715.64;107690;1257;69053;-65
2023/06/28 08:55:06;;;;;;;1.50;1.00;;;;;;;22.38;92.89;98711.56;107584;1257;72352;-65
2023/06/28 08:57:34;;;;;;;4.50;0.90;;;;;;;22.52;95.16;98714.86;107702;1259;60269;-62
2023/06/28 09:00:05;;;;;;;2.70;1.00;;;;;;;22.64;90.95;98717.66;107735;1260;62089;-65
2023/06/28 09:02:33;;;;;;;1.90;1.30;;;;;;;22.69;88.26;98718.73;107950;1256;72146;-64
2023/06/28 09:05:02;;;;;;;2.50;1.00;;;;;;;22.67;82.02;98721.71;107667;1257;69401;-64
2023/06/28 09:07:31;;;;;;;3.50;1.10;;;;;;;22.70;76.36;98719.80;107742;1256;72031;-66
2023/06/28 09:09:59;;;;;;;1.10;0.90;;;;;;;22.72;69.49;98714.55;107763;1259;59835;-63
2023/06/28 09:12:26;;;;;;;1.70;0.80;;;;;;;22.83;72.87;98709.77;108015;1256;58631;-61
2023/06/28 09:14:55;;;;;;;1.80;0.90;;;;;;;22.89;68.05;98708.03;107936;1256;73243;-62
2023/06/28 09:17:23;;;;;;;3.30;1.00;;;;;;;22.83;71.07;98703.54;107793;1255;69169;-63
2023/06/28 09:19:51;;;;;;;;;;;;;;;22.94;74.62;98701.56;107782;1257;72404;-64
2023/06/28 09:22:20;;;;;;;1.50;1.00;;;;;;;23.08;72.63;98701.94;107711;1257;59850;-62
2023/06/28 09:24:48;;;;;;;1.20;0.90;;;;;;;23.08;69.51;98704.55;107768;1256;60199;-63
2023/06/28 09:27:16;;;;;;;1.40;0.90;;;;;;;23.09;71.95;98709.59;107955;1257;73271;-64
2023/06/28 09:30:04;;;;;;;1.40;1.00;;;;;;;23.11;71.29;98706.74;107959;1256;69134;-63
2023/06/28 09:32:38;;;;;;;1.50;0.80;;;;;;;23.15;74.61;98706.80;107754;1257;72389;-62
2023/06/28 09:35:10;;;;;;;4.90;1.00;;;;;;;23.31;72.36;98699.10;107776;1258;59226;-64
2023/06/28 09:37:38;;;;;;;1.20;0.90;;;;;;;23.38;71.78;98697.70;107866;1256;60065;-65
2023/06/28 09:40:06;;;;;;;;;;;;;;;23.37;65.09;98697.23;107894;1256;71775;-65
2023/06/28 09:42:47;;;;;;;1.80;0.90;;;;;;;23.52;66.37;98694.20;107870;1256;70192;-62
2023/06/28 09:45:26;;;;;;;4.00;0.80;;;;;;;23.60;60.23;98690.43;107986;1256;72476;-64
2023/06/28 09:47:59;;;;;;;1.30;1.10;;;;;;;23.76;62.12;98687.06;107947;1257;59023;-61
2023/06/28 09:50:47;;;;;;;1.80;0.80;;;;;;;23.76;60.44;98702.45;107905;1256;59106;-68
2023/06/28 09:53:19;;;;;;;2.70;1.00;;;;;;;23.77;61.31;98708.27;107878;1255;72845;-64
2023/06/28 09:55:49;;;;;;;3.20;1.00;;;;;;;23.71;61.57;98706.02;107919;1257;69802;-61
2023/06/28 09:58:20;;;;;;;6.60;1.00;;;;;;;23.67;61.10;98711.84;107624;1256;72464;-62
2023/06/28 10:00:49;;;;;;;3.00;0.90;;;;;;;23.70;60.64;98712.00;107664;1257;59817;-62
2023/06/28 10:03:20;;;;;;;1.10;1.00;;;;;;;23.63;60.13;98719.06;107701;1256;59716;-62
2023/06/28 10:05:48;;;;;;;0.90;0.70;;;;;;;23.60;58.85;98716.65;107485;1256;71806;-64
2023/06/28 10:08:16;;;;;;;3.40;0.90;;;;;;;23.72;59.00;98713.60;107472;1257;70033;-63
2023/06/28 10:10:44;;;;;;;1.00;0.60;;;;;;;23.71;57.18;98724.44;107688;1257;72884;-62
2023/06/28 10:13:18;;;;;;;0.80;0.60;;;;;;;23.52;52.24;98720.66;107800;1259;59856;-63
2023/06/28 10:16:03;;;;;;;1.50;1.20;;;;;;;23.49;54.85;98718.83;107873;1256;60720;-63
2023/06/28 10:18:31;;;;;;;2.20;0.80;;;;;;;23.44;56.59;98711.82;107854;1256;72751;-63
2023/06/28 10:21:06;;;;;;;2.20;1.00;;;;;;;23.53;57.98;98716.36;107868;1255;68064;-62
2023/06/28 10:23:35;;;;;;;1.20;0.80;;;;;;;23.46;57.13;98714.27;108012;1252;72305;-62
2023/06/28 10:26:03;;;;;;;2.50;0.80;;;;;;;23.49;56.86;98713.05;108153;1254;60058;-62
2023/06/28 10:28:34;;;;;;;1.40;1.00;;;;;;;23.56;53.87;98711.43;108135;1254;59887;-64
2023/06/28 10:31:05;;;;;;;2.50;0.90;;;;;;;23.59;55.12;98705.16;108145;1254;72894;-62
2023/06/28 10:33:36;;;;;;;4.40;0.80;;;;;;;23.63;53.78;98710.64;108475;1251;69122;-61
2023/06/28 10:36:04;;;;;;;1.70;0.90;;;;;;;23.55;51.86;98709.80;108353;1253;72939;-62
2023/06/28 10:38:43;;;;;;;1.20;0.70;;;;;;;23.44;52.80;98703.25;108465;1253;59959;-63
2023/06/28 10:41:14;;;;;;;4.30;1.00;;;;;;;23.47;56.38;98704.75;108545;1252;60149;-61
2023/06/28 10:43:43;;;;;;;7.40;1.20;;;;;;;23.39;53.52;98711.58;108259;1251;73923;-63
2023/06/28 10:46:23;;;;;;;1.80;0.80;;;;;;;23.37;52.42;98704.56;108286;1251;69636;-63
2023/06/28 10:48:55;;;;;;;2.80;1.10;;;;;;;23.49;52.58;98699.87;108348;1253;72396;-65
2023/06/28 10:51:26;;;;;;;1.10;0.80;;;;;;;23.71;54.74;98694.77;108350;1253;60196;-63
2023/06/28 10:54:05;;;;;;;2.40;1.00;;;;;;;23.70;51.48;98703.21;108453;1251;59745;-63
2023/06/28 10:56:43;;;;;;;4.20;1.30;;;;;;;23.61;53.40;98702.30;108520;1252;72968;-63
2023/06/28 10:59:11;;;;;;;2.70;1.20;;;;;;;23.55;53.86;98695.31;108457;1251;69427;-61
2023/06/28 11:01:51;;;;;;;;;;;;;;;23.57;54.28;98699.75;108546;1253;72897;-63
2023/06/28 11:04:23;;;;;;;2.00;0.80;;;;;;;23.59;53.81;98695.73;108404;1252;59777;-63
2023/06/28 11:07:03;;;;;;;2.00;1.00;;;;;;;23.48;53.16;98691.23;108537;1252;58836;-63
2023/06/28 11:09:31;;;;;;;1.80;0.80;;;;;;;23.48;54.33;98694.75;108539;1253;73699;-63
2023/06/28 11:11:59;;;;;;;4.10;1.20;;;;;;;23.60;57.03;98689.89;108470;1251;69464;-63
2023/06/28 11:14:29;;;;;;;1.00;0.80;;;;;;;23.83;55.02;98680.34;108410;1252;72317;-63
2023/06/28 11:17:11;;;;;;;2.50;0.90;;;;;;;23.92;51.72;98677.55;108408;1253;60199;-62
2023/06/28 11:19:39;;;;;;;2.10;1.10;;;;;;;23.97;52.14;98674.41;108577;1252;60116;-60
2023/06/28 11:22:07;;;;;;;7.90;1.10;;;;;;;24.00;52.93;98677.56;108459;1251;73075;-64
2023/06/28 11:24:37;;;;;;;1.50;0.80;;;;;;;24.09;52.02;98677.95;108479;1251;70001;-61
2023/06/28 11:27:17;;;;;;;2.50;1.00;;;;;;;24.05;50.94;98674.48;108358;1253;72495;-62
2023/06/28 11:29:59;;;;;;;6.00;1.10;;;;;;;24.19;52.25;98672.12;108177;1253;60162;-62
2023/06/28 11:32:28;;;;;;;3.50;0.80;;;;;;;24.35;51.35;98671.96;108618;1252;59804;-63
2023/06/28 11:34:57;;;;;;;1.50;1.10;;;;;;;24.45;49.13;98666.48;108455;1252;73110;-64
2023/06/28 11:37:25;;;;;;;3.70;0.80;;;;;;;24.64;48.94;98666.01;108474;1250;70908;-65
2023/06/28 11:39:52;;;;;;;5.80;1.10;;;;;;;24.54;45.70;98653.91;108455;1252;73501;-62